createdAt,value
2023-05-05T00:00:23.646Z,9.77
2023-05-05T00:02:55.113Z,9.73
2023-05-05T00:05:26.485Z,9.63
2023-05-05T00:07:57.744Z,9.69
2023-05-05T00:10:29.089Z,9.65
2023-05-05T00:13:00.519Z,9.61
2023-05-05T00:15:32.790Z,9.44
2023-05-05T00:18:04.982Z,9.53
2023-05-05T00:20:36.639Z,9.36
2023-05-05T00:23:08.027Z,9.47
2023-05-05T00:25:39.423Z,9.29
2023-05-05T00:28:11.090Z,9.39
2023-05-05T00:30:42.789Z,9.34
2023-05-05T00:33:14.100Z,9.34
2023-05-05T00:35:45.368Z,9.31
2023-05-05T00:38:16.678Z,9.27
2023-05-05T00:40:47.959Z,9.24
2023-05-05T00:43:19.255Z,9.19
2023-05-05T00:45:59.773Z,9.09
2023-05-05T00:48:32.105Z,9.04
2023-05-05T00:51:08.261Z,9.11
2023-05-05T00:53:42.921Z,9.02
2023-05-05T00:56:16.673Z,9.05
2023-05-05T00:58:48.990Z,8.85
2023-05-05T01:01:20.607Z,9.00
2023-05-05T01:03:52.068Z,8.99
2023-05-05T01:06:33.507Z,8.99
2023-05-05T01:09:41.137Z,8.91
2023-05-05T01:12:31.851Z,9.00
2023-05-05T01:15:22.680Z,8.99
2023-05-05T01:18:31.330Z,8.98
2023-05-05T01:21:23.206Z,8.95
2023-05-05T01:24:07.768Z,8.93
2023-05-05T01:27:16.567Z,8.89
2023-05-05T01:30:03.101Z,8.84
2023-05-05T01:32:41.754Z,8.82
2023-05-05T01:35:39.370Z,8.79
2023-05-05T01:38:21.630Z,8.63
2023-05-05T01:41:03.553Z,8.74
2023-05-05T01:43:36.868Z,8.70
2023-05-05T01:46:08.869Z,8.51
2023-05-05T01:48:42.445Z,8.64
2023-05-05T01:51:17.558Z,8.61
2023-05-05T01:53:51.887Z,8.59
2023-05-05T01:56:25.080Z,8.57
2023-05-05T01:58:57.438Z,8.53
2023-05-05T02:01:29.831Z,8.52
2023-05-05T02:04:03.294Z,8.49
2023-05-05T02:06:35.547Z,8.47
2023-05-05T02:09:11.588Z,8.46
2023-05-05T02:11:43.178Z,8.44
2023-05-05T02:14:17.330Z,8.42
2023-05-05T02:16:50.360Z,8.41
2023-05-05T02:19:27.601Z,8.40
2023-05-05T02:21:58.996Z,8.38
2023-05-05T02:24:30.806Z,8.37
2023-05-05T02:27:05.961Z,8.27
2023-05-05T02:29:47.519Z,8.34
2023-05-05T02:32:27.477Z,8.32
2023-05-05T02:35:04.136Z,8.28
2023-05-05T02:37:36.777Z,8.26
2023-05-05T02:40:10.678Z,8.14
2023-05-05T02:42:46.538Z,8.15
2023-05-05T02:45:19.855Z,8.22
2023-05-05T02:47:51.188Z,8.24
2023-05-05T02:50:22.670Z,8.24
2023-05-05T02:52:53.974Z,8.23
2023-05-05T02:55:37.230Z,8.24
2023-05-05T02:58:17.062Z,8.23
2023-05-05T03:01:17.505Z,8.21
2023-05-05T03:04:15.862Z,8.20
2023-05-05T03:06:49.944Z,8.18
2023-05-05T03:09:32.836Z,8.18
2023-05-05T03:12:07.045Z,8.12
2023-05-05T03:14:44.540Z,8.20
2023-05-05T03:17:18.582Z,8.21
2023-05-05T03:19:50.977Z,8.15
2023-05-05T03:22:22.385Z,8.27
2023-05-05T03:24:53.716Z,8.28
2023-05-05T03:27:24.999Z,8.20
2023-05-05T03:29:56.563Z,8.27
2023-05-05T03:32:28.910Z,8.25
2023-05-05T03:35:00.213Z,8.23
2023-05-05T03:37:31.554Z,8.21
2023-05-05T03:40:02.900Z,8.20
2023-05-05T03:42:34.208Z,8.14
2023-05-05T03:45:05.986Z,8.05
2023-05-05T03:47:37.338Z,8.16
2023-05-05T03:50:09.348Z,8.18
2023-05-05T03:52:40.735Z,8.18
2023-05-05T03:55:12.087Z,8.18
2023-05-05T03:57:43.473Z,7.94
2023-05-05T04:00:15.177Z,8.16
2023-05-05T04:02:46.590Z,8.11
2023-05-05T04:05:19.697Z,8.07
2023-05-05T04:07:50.960Z,8.17
2023-05-05T04:10:22.347Z,8.18
2023-05-05T04:12:53.647Z,8.21
2023-05-05T04:15:24.998Z,8.20
2023-05-05T04:17:56.436Z,8.16
2023-05-05T04:20:27.829Z,8.14
2023-05-05T04:22:59.176Z,8.31
2023-05-05T04:25:30.702Z,8.24
2023-05-05T04:28:01.977Z,8.39
2023-05-05T04:30:33.331Z,8.39
2023-05-05T04:33:04.785Z,8.50
2023-05-05T04:35:36.366Z,8.56
2023-05-05T04:38:07.674Z,8.65
2023-05-05T04:40:41.049Z,8.74
2023-05-05T04:43:12.417Z,8.83
2023-05-05T04:45:55.283Z,8.91
2023-05-05T04:48:26.542Z,9.04
2023-05-05T04:50:57.815Z,9.11
2023-05-05T04:53:29.181Z,9.06
2023-05-05T04:56:01.465Z,9.27
2023-05-05T04:58:32.840Z,9.35
2023-05-05T05:01:04.250Z,9.40
2023-05-05T05:03:36.498Z,9.43
2023-05-05T05:06:08.036Z,9.58
2023-05-05T05:08:39.295Z,9.57
2023-05-05T05:11:10.650Z,9.74
2023-05-05T05:13:42.058Z,9.87
2023-05-05T05:16:14.155Z,9.95
2023-05-05T05:18:45.850Z,9.96
2023-05-05T05:21:17.309Z,9.99
2023-05-05T05:23:48.675Z,10.00
2023-05-05T05:26:20.074Z,10.01
2023-05-05T05:28:51.632Z,10.14
2023-05-05T05:31:23.031Z,10.29
2023-05-05T05:33:56.074Z,10.46
2023-05-05T05:36:27.469Z,10.67
2023-05-05T05:38:58.829Z,10.77
2023-05-05T05:41:30.261Z,10.85
2023-05-05T05:44:01.693Z,10.97
2023-05-05T05:46:33.250Z,11.15
2023-05-05T05:49:04.595Z,11.16
2023-05-05T05:51:35.994Z,11.13
2023-05-05T05:54:07.303Z,11.10
2023-05-05T05:56:38.629Z,11.06
2023-05-05T05:59:10.103Z,11.10
2023-05-05T06:01:41.600Z,10.95
2023-05-05T06:04:13.166Z,11.23
2023-05-05T06:06:44.557Z,11.20
2023-05-05T06:09:15.814Z,11.37
2023-05-05T06:11:47.392Z,11.34
2023-05-05T06:14:20.064Z,11.59
2023-05-05T06:16:52.656Z,11.70
2023-05-05T06:19:23.967Z,11.93
2023-05-05T06:21:55.379Z,12.58
2023-05-05T06:24:26.802Z,13.17
2023-05-05T06:26:59.318Z,13.49
2023-05-05T06:29:31.006Z,13.68
2023-05-05T06:32:02.337Z,13.77
2023-05-05T06:34:34.104Z,13.69
2023-05-05T06:37:05.617Z,13.38
2023-05-05T06:39:36.984Z,13.43
2023-05-05T06:42:08.446Z,13.50
2023-05-05T06:44:39.863Z,13.53
2023-05-05T06:47:11.205Z,13.39
2023-05-05T06:49:42.495Z,13.46
2023-05-05T06:52:13.937Z,13.36
2023-05-05T06:54:45.468Z,13.31
2023-05-05T06:57:16.851Z,13.19
2023-05-05T06:59:48.255Z,13.09
2023-05-05T07:02:19.616Z,13.11
2023-05-05T07:04:50.976Z,13.02
2023-05-05T07:07:22.507Z,13.16
2023-05-05T07:09:53.782Z,12.99
2023-05-05T07:12:25.157Z,13.01
2023-05-05T07:14:56.772Z,12.96
2023-05-05T07:17:28.238Z,12.97
2023-05-05T07:19:59.582Z,12.98
2023-05-05T07:22:30.951Z,12.95
2023-05-05T07:25:03.852Z,12.92
2023-05-05T07:27:37.247Z,12.95
2023-05-05T07:30:13.233Z,12.99
2023-05-05T07:32:45.855Z,13.01
2023-05-05T07:35:17.471Z,13.06
2023-05-05T07:37:49.362Z,13.15
2023-05-05T07:40:21.052Z,13.17
2023-05-05T07:42:52.401Z,13.28
2023-05-05T07:45:23.695Z,13.46
2023-05-05T07:47:55.675Z,13.54
2023-05-05T07:50:27.116Z,13.75
2023-05-05T07:53:13.067Z,14.02
2023-05-05T07:55:46.254Z,14.18
2023-05-05T07:58:18.173Z,14.35
2023-05-05T08:00:50.836Z,14.53
2023-05-05T08:03:24.517Z,14.73
2023-05-05T08:05:56.455Z,14.98
2023-05-05T08:08:27.755Z,15.17
2023-05-05T08:10:59.342Z,15.16
2023-05-05T08:13:30.939Z,15.28
2023-05-05T08:16:02.278Z,15.41
2023-05-05T08:18:35.314Z,15.64
2023-05-05T08:21:10.735Z,15.91
2023-05-05T08:23:42.354Z,15.94
2023-05-05T08:26:13.888Z,16.10
2023-05-05T08:28:46.578Z,16.44
2023-05-05T08:31:18.056Z,16.67
2023-05-05T08:33:49.923Z,16.75
2023-05-05T08:36:21.538Z,16.65
2023-05-05T08:38:53.109Z,16.59
2023-05-05T08:41:25.203Z,16.51
2023-05-05T08:43:56.530Z,16.73
2023-05-05T08:46:28.396Z,16.83
2023-05-05T08:49:03.206Z,16.82
2023-05-05T08:51:42.238Z,16.71
2023-05-05T08:54:18.071Z,16.83
2023-05-05T08:56:51.080Z,16.82
2023-05-05T08:59:25.029Z,16.93
2023-05-05T09:01:57.509Z,17.23
2023-05-05T09:04:29.045Z,17.36
2023-05-05T09:07:00.688Z,17.46
2023-05-05T09:09:32.487Z,17.44
2023-05-05T09:12:03.960Z,17.70
2023-05-05T09:14:35.562Z,17.76
2023-05-05T09:17:07.002Z,17.93
2023-05-05T09:20:04.968Z,17.79
2023-05-05T09:22:37.445Z,17.60
2023-05-05T09:25:12.145Z,17.46
2023-05-05T09:27:49.393Z,17.46
2023-05-05T09:30:24.732Z,17.41
2023-05-05T09:32:56.279Z,17.40
2023-05-05T09:35:28.503Z,17.65
2023-05-05T09:38:11.732Z,17.77
2023-05-05T09:40:51.039Z,17.84
2023-05-05T09:43:23.780Z,18.01
2023-05-05T09:46:14.118Z,18.02
2023-05-05T09:48:45.545Z,18.05
2023-05-05T09:51:28.580Z,18.03
2023-05-05T09:53:59.916Z,17.95
2023-05-05T09:56:40.644Z,17.64
2023-05-05T09:59:12.022Z,17.64
2023-05-05T10:01:43.788Z,17.58
2023-05-05T10:04:26.192Z,17.59
2023-05-05T10:06:58.672Z,17.58
2023-05-05T10:09:32.355Z,17.62
2023-05-05T10:12:04.972Z,17.64
2023-05-05T10:14:37.682Z,17.71
2023-05-05T10:17:09.922Z,17.76
2023-05-05T10:19:44.074Z,17.88
2023-05-05T10:22:18.234Z,18.23
2023-05-05T10:25:13.593Z,18.57
2023-05-05T10:27:46.852Z,18.75
2023-05-05T10:30:29.472Z,18.86
2023-05-05T10:35:50.004Z,18.71
2023-05-05T10:38:24.829Z,18.78
2023-05-05T10:40:59.887Z,18.72
2023-05-05T10:43:31.930Z,18.79
2023-05-05T10:46:03.539Z,18.83
2023-05-05T10:48:40.493Z,18.88
2023-05-05T10:51:35.397Z,18.99
2023-05-05T10:54:22.416Z,19.09
2023-05-05T10:56:53.971Z,19.11
2023-05-05T10:59:37.790Z,19.03
2023-05-05T11:02:21.357Z,18.91
2023-05-05T11:05:09.698Z,18.84
2023-05-05T11:07:46.302Z,18.72
2023-05-05T11:10:20.523Z,18.66
2023-05-05T11:12:52.254Z,18.55
2023-05-05T11:15:23.798Z,18.38
2023-05-05T11:17:56.526Z,18.22
2023-05-05T11:20:39.275Z,18.08
2023-05-05T11:23:10.640Z,17.92
2023-05-05T11:25:45.252Z,17.79
2023-05-05T11:28:19.464Z,17.69
2023-05-05T11:30:58.077Z,17.59
2023-05-05T11:33:38.029Z,17.47
2023-05-05T11:36:16.905Z,17.31
2023-05-05T11:39:18.174Z,17.33
2023-05-05T11:41:49.494Z,17.24
2023-05-05T11:44:30.103Z,17.10
2023-05-05T11:47:04.440Z,16.98
2023-05-05T11:49:39.633Z,16.86
2023-05-05T11:52:14.493Z,16.81
2023-05-05T11:54:48.550Z,16.83
2023-05-05T11:57:27.724Z,16.87
2023-05-05T12:00:05.185Z,16.95
2023-05-05T12:02:36.681Z,17.00
2023-05-05T12:05:08.147Z,17.08
2023-05-05T12:07:39.708Z,17.15
2023-05-05T12:10:11.173Z,17.24
2023-05-05T12:12:42.532Z,17.35
2023-05-05T12:15:14.335Z,17.47
2023-05-05T12:17:46.969Z,17.54
2023-05-05T12:20:29.245Z,17.61
2023-05-05T12:23:02.527Z,17.67
2023-05-05T12:25:38.958Z,17.76
2023-05-05T12:28:10.436Z,17.80
2023-05-05T12:30:41.883Z,17.95
2023-05-05T12:33:13.260Z,18.02
2023-05-05T12:35:44.759Z,18.08
2023-05-05T12:38:16.168Z,18.08
2023-05-05T12:40:49.855Z,18.29
2023-05-05T12:43:26.457Z,18.47
2023-05-05T12:46:05.218Z,18.83
2023-05-05T12:48:40.242Z,19.08
2023-05-05T12:51:16.716Z,19.38
2023-05-05T12:53:49.955Z,19.52
2023-05-05T12:56:36.278Z,19.66
2023-05-05T12:59:10.158Z,19.67
2023-05-05T13:01:52.256Z,19.97
2023-05-05T13:04:26.635Z,20.16
2023-05-05T13:07:10.611Z,20.26
2023-05-05T13:09:42.449Z,20.34
2023-05-05T13:12:14.842Z,20.27
2023-05-05T13:14:47.052Z,20.43
2023-05-05T13:17:18.724Z,20.49
2023-05-05T13:19:50.945Z,20.67
2023-05-05T13:22:22.431Z,20.85
2023-05-05T13:24:53.836Z,20.99
2023-05-05T13:27:25.116Z,20.98
2023-05-05T13:29:56.493Z,20.93
2023-05-05T13:32:27.797Z,20.79
2023-05-05T13:34:59.072Z,20.77
2023-05-05T13:37:30.318Z,20.74
2023-05-05T13:40:01.582Z,20.81
2023-05-05T13:42:33.070Z,20.94
2023-05-05T13:45:05.883Z,21.27
2023-05-05T13:47:37.258Z,21.37
2023-05-05T13:50:08.732Z,21.39
2023-05-05T13:52:40.010Z,21.27
2023-05-05T13:55:11.489Z,21.07
2023-05-05T13:57:43.126Z,20.87
2023-05-05T14:00:15.820Z,20.57
2023-05-05T14:02:48.079Z,20.40
2023-05-05T14:05:20.275Z,20.20
2023-05-05T14:07:52.164Z,20.03
2023-05-05T14:10:23.502Z,19.92
2023-05-05T14:12:54.855Z,19.75
2023-05-05T14:15:26.182Z,19.60
2023-05-05T14:17:57.880Z,19.48
2023-05-05T14:20:29.317Z,19.33
2023-05-05T14:23:00.998Z,19.25
2023-05-05T14:25:32.371Z,19.11
2023-05-05T14:28:03.887Z,18.90
2023-05-05T14:30:35.380Z,18.80
2023-05-05T14:33:06.873Z,18.70
2023-05-05T14:35:38.179Z,18.56
2023-05-05T14:38:09.467Z,18.45
2023-05-05T14:40:40.877Z,18.39
2023-05-05T14:43:12.166Z,18.39
2023-05-05T14:45:44.220Z,18.40
2023-05-05T14:48:15.788Z,18.28
2023-05-05T14:50:47.543Z,18.31
2023-05-05T14:53:19.273Z,18.25
2023-05-05T14:55:50.568Z,18.27
2023-05-05T14:58:24.420Z,18.26
2023-05-05T15:00:55.797Z,18.50
2023-05-05T15:03:27.257Z,18.65
2023-05-05T15:05:58.636Z,18.74
2023-05-05T15:08:30.000Z,18.74
2023-05-05T15:11:01.395Z,18.68
2023-05-05T15:13:32.776Z,18.76
2023-05-05T15:16:04.332Z,18.79
2023-05-05T15:18:36.330Z,18.88
2023-05-05T15:21:07.688Z,18.91
2023-05-05T15:23:39.167Z,18.89
2023-05-05T15:26:10.661Z,18.75
2023-05-05T15:28:41.968Z,18.68
2023-05-05T15:31:13.308Z,18.53
2023-05-05T15:33:46.421Z,18.39
2023-05-05T15:36:22.285Z,18.18
2023-05-05T15:38:53.577Z,18.20
2023-05-05T15:41:29.142Z,18.03
2023-05-05T15:44:01.983Z,17.91
2023-05-05T15:46:33.740Z,17.89
2023-05-05T15:49:05.286Z,17.76
2023-05-05T15:51:36.739Z,17.58
2023-05-05T15:54:08.100Z,17.55
2023-05-05T15:56:39.687Z,17.49
2023-05-05T15:59:10.975Z,17.44
2023-05-05T16:01:42.270Z,17.39
2023-05-05T16:04:14.160Z,17.30
2023-05-05T16:06:45.514Z,17.20
2023-05-05T16:09:17.575Z,16.97
2023-05-05T16:11:49.052Z,16.96
2023-05-05T16:14:21.359Z,16.89
2023-05-05T16:16:52.704Z,16.83
2023-05-05T16:19:26.540Z,16.67
2023-05-05T16:21:57.820Z,16.76
2023-05-05T16:24:29.169Z,16.70
2023-05-05T16:27:00.443Z,16.66
2023-05-05T16:29:31.817Z,16.61
2023-05-05T16:32:03.287Z,16.55
2023-05-05T16:34:34.741Z,16.48
2023-05-05T16:37:06.123Z,16.46
2023-05-05T16:39:40.103Z,16.41
2023-05-05T16:42:13.007Z,16.34
2023-05-05T16:44:44.292Z,16.28
2023-05-05T16:47:15.634Z,16.23
2023-05-05T16:49:47.089Z,16.18
2023-05-05T16:52:18.820Z,16.15
2023-05-05T16:54:55.363Z,16.13
2023-05-05T16:57:26.859Z,16.09
2023-05-05T16:59:58.308Z,16.06
2023-05-05T17:02:29.581Z,16.01
2023-05-05T17:05:01.327Z,16.01
2023-05-05T17:07:32.709Z,15.87
2023-05-05T17:10:04.421Z,15.93
2023-05-05T17:12:35.710Z,15.90
2023-05-05T17:15:08.766Z,15.88
2023-05-05T17:17:41.633Z,15.84
2023-05-05T17:20:14.337Z,15.82
2023-05-05T17:22:46.518Z,15.80
2023-05-05T17:25:17.843Z,15.70
2023-05-05T17:27:49.100Z,15.75
2023-05-05T17:30:20.557Z,15.59
2023-05-05T17:32:52.438Z,15.67
2023-05-05T17:35:23.833Z,15.65
2023-05-05T17:37:55.232Z,15.65
2023-05-05T17:40:26.631Z,15.64
2023-05-05T17:42:57.988Z,15.62
2023-05-05T17:45:29.415Z,15.63
2023-05-05T17:48:00.757Z,15.62
2023-05-05T17:50:32.216Z,15.60
2023-05-05T17:53:04.334Z,15.55
2023-05-05T17:55:35.661Z,15.52
2023-05-05T17:58:07.015Z,15.40
2023-05-05T18:00:38.289Z,15.10
2023-05-05T18:03:09.639Z,14.76
2023-05-05T18:05:40.978Z,14.66
2023-05-05T18:08:12.355Z,14.46
2023-05-05T18:10:43.792Z,14.33
2023-05-05T18:13:15.256Z,14.20
2023-05-05T18:15:46.640Z,14.08
2023-05-05T18:18:18.077Z,13.97
2023-05-05T18:20:49.709Z,13.97
2023-05-05T18:23:22.424Z,13.92
2023-05-05T18:25:53.713Z,13.86
2023-05-05T18:28:25.113Z,13.77
2023-05-05T18:30:56.715Z,13.84
2023-05-05T18:33:28.058Z,13.72
2023-05-05T18:35:59.364Z,13.78
2023-05-05T18:38:32.309Z,13.64
2023-05-05T18:41:04.173Z,13.73
2023-05-05T18:43:35.491Z,13.76
2023-05-05T18:46:06.953Z,13.70
2023-05-05T18:48:38.475Z,13.67
2023-05-05T18:51:09.726Z,13.57
2023-05-05T18:53:41.791Z,13.44
2023-05-05T18:56:13.262Z,13.40
2023-05-05T18:58:44.535Z,13.25
2023-05-05T19:01:16.306Z,13.23
2023-05-05T19:03:48.017Z,13.14
2023-05-05T19:06:19.424Z,13.06
2023-05-05T19:08:50.944Z,12.95
2023-05-05T19:11:23.506Z,12.79
2023-05-05T19:13:54.897Z,12.89
2023-05-05T19:16:27.723Z,12.76
2023-05-05T19:19:00.676Z,12.84
2023-05-05T19:21:32.136Z,12.75
2023-05-05T19:24:03.534Z,12.73
2023-05-05T19:26:35.324Z,12.56
2023-05-05T19:29:06.698Z,12.58
2023-05-05T19:31:38.286Z,12.50
2023-05-05T19:34:09.604Z,12.40
2023-05-05T19:36:40.926Z,12.33
2023-05-05T19:39:13.700Z,12.27
2023-05-05T19:41:46.709Z,12.19
2023-05-05T19:44:18.078Z,12.11
2023-05-05T19:46:49.464Z,11.93
2023-05-05T19:49:20.844Z,11.98
2023-05-05T19:51:52.765Z,11.90
2023-05-05T19:54:24.552Z,11.78
2023-05-05T19:56:57.342Z,11.64
2023-05-05T19:59:29.224Z,11.54
2023-05-05T20:02:00.779Z,11.25
2023-05-05T20:04:32.242Z,11.13
2023-05-05T20:07:04.396Z,11.17
2023-05-05T20:09:37.574Z,11.06
2023-05-05T20:12:08.947Z,10.98
2023-05-05T20:14:40.520Z,10.93
2023-05-05T20:17:12.524Z,10.86
2023-05-05T20:19:43.892Z,10.83
2023-05-05T20:22:15.195Z,10.78
2023-05-05T20:24:46.549Z,10.73
2023-05-05T20:27:17.995Z,10.71
2023-05-05T20:29:49.259Z,10.65
2023-05-05T20:32:20.616Z,10.54
2023-05-05T20:34:51.901Z,10.54
2023-05-05T20:37:23.351Z,10.51
2023-05-05T20:39:56.585Z,10.42
2023-05-05T20:42:29.443Z,10.32
2023-05-05T20:45:01.668Z,10.27
2023-05-05T20:47:34.854Z,10.22
2023-05-05T20:50:06.869Z,10.21
2023-05-05T20:52:38.262Z,10.14
2023-05-05T20:55:09.778Z,10.16
2023-05-05T20:57:41.094Z,10.15
2023-05-05T21:00:12.871Z,10.08
2023-05-05T21:02:44.315Z,10.18
2023-05-05T21:05:15.851Z,10.18
2023-05-05T21:07:47.256Z,10.11
2023-05-05T21:10:20.451Z,10.17
2023-05-05T21:12:52.585Z,10.13
2023-05-05T21:15:24.893Z,10.13
2023-05-05T21:17:57.669Z,10.06
2023-05-05T21:20:29.623Z,10.10
2023-05-05T21:23:01.194Z,10.08
2023-05-05T21:25:32.826Z,10.08
2023-05-05T21:28:04.635Z,10.07
2023-05-05T21:30:38.356Z,10.06
2023-05-05T21:33:10.304Z,10.04
2023-05-05T21:35:42.130Z,9.97
2023-05-05T21:38:13.940Z,10.01
2023-05-05T21:40:45.393Z,9.91
2023-05-05T21:43:16.917Z,10.04
2023-05-05T21:45:48.222Z,9.92
2023-05-05T21:48:19.612Z,10.03
2023-05-05T21:50:50.884Z,9.88
2023-05-05T21:53:22.333Z,9.96
2023-05-05T21:55:53.888Z,9.99
2023-05-05T21:58:25.248Z,9.97
2023-05-05T22:00:56.553Z,9.94
2023-05-05T22:03:28.041Z,9.93
2023-05-05T22:05:59.544Z,9.83
2023-05-05T22:08:30.808Z,9.93
2023-05-05T22:11:02.162Z,9.91
2023-05-05T22:13:33.548Z,9.90
2023-05-05T22:16:09.544Z,9.91
2023-05-05T22:18:40.955Z,9.89
2023-05-05T22:21:12.402Z,9.87
2023-05-05T22:23:43.662Z,9.83
2023-05-05T22:26:15.034Z,9.73
2023-05-05T22:28:46.395Z,9.76
2023-05-05T22:31:17.829Z,9.71
2023-05-05T22:33:49.123Z,9.67
2023-05-05T22:36:20.450Z,9.66
2023-05-05T22:38:51.821Z,9.62
2023-05-05T22:41:23.108Z,9.57
2023-05-05T22:43:54.472Z,9.66
2023-05-05T22:46:26.009Z,9.46
2023-05-05T22:48:57.459Z,9.59
2023-05-05T22:51:29.294Z,9.63
2023-05-05T22:54:00.562Z,9.64
2023-05-05T22:56:31.855Z,9.64
2023-05-05T22:59:03.171Z,9.66
2023-05-05T23:01:34.536Z,9.66
2023-05-05T23:04:06.405Z,9.67
2023-05-05T23:06:39.560Z,9.70
2023-05-05T23:09:10.833Z,9.68
2023-05-05T23:11:42.255Z,9.67
2023-05-05T23:14:13.496Z,9.65
2023-05-05T23:16:47.591Z,9.59
2023-05-05T23:19:19.003Z,9.50
2023-05-05T23:21:53.708Z,9.47
2023-05-05T23:24:25.965Z,9.35
2023-05-05T23:27:04.057Z,9.31
2023-05-05T23:29:35.381Z,9.26
2023-05-05T23:32:06.766Z,9.17
2023-05-05T23:34:38.096Z,9.13
2023-05-05T23:37:09.388Z,9.10
2023-05-05T23:39:41.341Z,9.08
2023-05-05T23:42:12.751Z,9.08
2023-05-05T23:44:44.006Z,9.05
2023-05-05T23:47:15.303Z,9.04
2023-05-05T23:49:46.601Z,9.09
2023-05-05T23:52:17.888Z,8.98
2023-05-05T23:54:49.156Z,9.12
2023-05-05T23:57:20.633Z,8.99
2023-05-05T23:59:51.962Z,9.10
